createdAt,value
2019-03-12T00:00:26.794Z,1019.05
2019-03-12T00:01:26.783Z,1019.01
2019-03-12T00:02:26.778Z,1018.95
2019-03-12T00:03:26.773Z,1018.98
2019-03-12T00:04:26.751Z,1018.89
2019-03-12T00:05:26.740Z,1018.95
2019-03-12T00:06:26.731Z,1018.98
2019-03-12T00:07:26.720Z,1018.93
2019-03-12T00:08:26.712Z,1018.91
2019-03-12T00:09:26.709Z,1018.90
2019-03-12T00:10:26.691Z,1018.89
2019-03-12T00:11:26.678Z,1018.88
2019-03-12T00:12:26.678Z,1018.86
2019-03-12T00:13:26.657Z,1018.90
2019-03-12T00:14:26.654Z,1018.90
2019-03-12T00:15:26.654Z,1018.94
2019-03-12T00:16:26.626Z,1018.98
2019-03-12T00:17:26.615Z,1018.93
2019-03-12T00:18:28.434Z,1018.92
2019-03-12T00:19:26.593Z,1018.93
2019-03-12T00:20:26.583Z,1018.89
2019-03-12T00:21:26.583Z,1018.90
2019-03-12T00:22:26.562Z,1018.95
2019-03-12T00:23:26.554Z,1018.93
2019-03-12T00:24:26.540Z,1018.92
2019-03-12T00:25:26.533Z,1018.95
2019-03-12T00:26:26.519Z,1018.93
2019-03-12T00:27:26.518Z,1018.93
2019-03-12T00:28:26.499Z,1018.95
2019-03-12T00:29:26.490Z,1018.99
2019-03-12T00:30:26.478Z,1019.03
2019-03-12T00:31:26.467Z,1019.05
2019-03-12T00:32:26.469Z,1019.00
2019-03-12T00:33:26.489Z,1018.99
2019-03-12T00:34:26.446Z,1018.98
2019-03-12T00:35:26.427Z,1018.99
2019-03-12T00:36:26.412Z,1018.99
2019-03-12T00:37:26.415Z,1019.01
2019-03-12T00:38:26.392Z,1018.98
2019-03-12T00:39:26.392Z,1019.02
2019-03-12T00:40:26.374Z,1018.99
2019-03-12T00:41:26.362Z,1019.00
2019-03-12T00:42:26.349Z,1019.06
2019-03-12T00:43:26.338Z,1019.04
2019-03-12T00:44:26.327Z,1018.99
2019-03-12T00:45:26.332Z,1019.00
2019-03-12T00:46:27.254Z,1018.99
2019-03-12T00:47:26.295Z,1018.99
2019-03-12T00:48:26.286Z,1018.97
2019-03-12T00:49:26.276Z,1018.99
2019-03-12T00:50:26.267Z,1019.02
2019-03-12T00:51:26.265Z,1019.03
2019-03-12T00:52:26.243Z,1019.03
2019-03-12T00:53:26.232Z,1019.07
2019-03-12T00:54:26.220Z,1019.09
2019-03-12T00:55:26.209Z,1019.09
2019-03-12T00:56:26.199Z,1019.08
2019-03-12T00:57:26.278Z,1019.07
2019-03-12T00:58:26.177Z,1019.07
2019-03-12T00:59:26.167Z,1019.07
2019-03-12T01:00:26.166Z,1019.03
2019-03-12T01:01:26.145Z,1019.03
2019-03-12T01:02:26.135Z,1019.01
2019-03-12T01:03:26.138Z,1018.92
2019-03-12T01:04:26.115Z,1018.93
2019-03-12T01:05:26.105Z,1018.94
2019-03-12T01:06:26.090Z,1018.89
2019-03-12T01:07:26.080Z,1018.90
2019-03-12T01:08:26.069Z,1018.89
2019-03-12T01:09:26.068Z,1018.87
2019-03-12T01:10:26.047Z,1018.81
2019-03-12T01:11:26.036Z,1018.80
2019-03-12T01:12:26.027Z,1018.87
2019-03-12T01:13:26.020Z,1018.82
2019-03-12T01:14:26.003Z,1018.81
2019-03-12T01:15:26.075Z,1018.80
2019-03-12T01:16:25.989Z,1018.84
2019-03-12T01:17:25.983Z,1018.82
2019-03-12T01:18:25.960Z,1018.73
2019-03-12T01:19:25.949Z,1018.72
2019-03-12T01:20:25.938Z,1018.76
2019-03-12T01:21:25.937Z,1018.72
2019-03-12T01:22:25.995Z,1018.70
2019-03-12T01:23:25.906Z,1018.64
2019-03-12T01:24:25.896Z,1018.58
2019-03-12T01:25:25.887Z,1018.69
2019-03-12T01:26:25.878Z,1018.69
2019-03-12T01:27:25.892Z,1018.65
2019-03-12T01:28:25.853Z,1018.62
2019-03-12T01:29:25.840Z,1018.64
2019-03-12T01:30:25.830Z,1018.60
2019-03-12T01:31:25.819Z,1018.57
2019-03-12T01:32:25.906Z,1018.49
2019-03-12T01:33:25.814Z,1018.51
2019-03-12T01:34:25.788Z,1018.44
2019-03-12T01:35:25.784Z,1018.49
2019-03-12T01:36:25.765Z,1018.44
2019-03-12T01:37:25.753Z,1018.47
2019-03-12T01:38:25.748Z,1018.45
2019-03-12T01:39:25.744Z,1018.45
2019-03-12T01:40:25.720Z,1018.44
2019-03-12T01:41:25.710Z,1018.47
2019-03-12T01:42:25.699Z,1018.43
2019-03-12T01:43:25.688Z,1018.48
2019-03-12T01:44:25.677Z,1018.45
2019-03-12T01:45:25.683Z,1018.42
2019-03-12T01:46:25.655Z,1018.43
2019-03-12T01:47:25.649Z,1018.44
2019-03-12T01:48:25.634Z,1018.41
2019-03-12T01:49:25.623Z,1018.43
2019-03-12T01:50:25.613Z,1018.40
2019-03-12T01:51:25.707Z,1018.37
2019-03-12T01:52:25.591Z,1018.36
2019-03-12T01:53:25.580Z,1018.35
2019-03-12T01:54:25.570Z,1018.37
2019-03-12T01:55:25.560Z,1018.36
2019-03-12T01:56:25.548Z,1018.42
2019-03-12T01:57:25.557Z,1018.40
2019-03-12T01:58:25.527Z,1018.37
2019-03-12T01:59:25.517Z,1018.39
2019-03-12T02:00:25.505Z,1018.32
2019-03-12T02:01:25.495Z,1018.31
2019-03-12T02:02:25.495Z,1018.29
2019-03-12T02:03:25.485Z,1018.29
2019-03-12T02:04:25.463Z,1018.32
2019-03-12T02:05:25.466Z,1018.27
2019-03-12T02:06:25.442Z,1018.25
2019-03-12T02:07:25.432Z,1018.28
2019-03-12T02:08:25.421Z,1018.23
2019-03-12T02:09:25.422Z,1018.24
2019-03-12T02:10:25.401Z,1018.23
2019-03-12T02:11:25.390Z,1018.21
2019-03-12T02:12:25.379Z,1018.20
2019-03-12T02:13:25.371Z,1018.12
2019-03-12T02:14:25.378Z,1018.13
2019-03-12T02:15:25.358Z,1018.13
2019-03-12T02:16:25.337Z,1018.08
2019-03-12T02:17:25.326Z,1018.08
2019-03-12T02:18:25.315Z,1018.04
2019-03-12T02:19:25.305Z,1018.05
2019-03-12T02:20:25.295Z,1018.08
2019-03-12T02:21:25.296Z,1018.06
2019-03-12T02:22:25.274Z,1018.04
2019-03-12T02:23:25.263Z,1018.01
2019-03-12T02:24:25.253Z,1017.98
2019-03-12T02:25:25.243Z,1017.95
2019-03-12T02:26:25.233Z,1017.93
2019-03-12T02:27:25.234Z,1017.88
2019-03-12T02:28:25.210Z,1017.88
2019-03-12T02:29:25.204Z,1017.89
2019-03-12T02:30:25.192Z,1017.85
2019-03-12T02:31:25.182Z,1017.83
2019-03-12T02:32:25.209Z,1017.78
2019-03-12T02:33:25.172Z,1017.81
2019-03-12T02:34:25.149Z,1017.72
2019-03-12T02:35:25.170Z,1017.74
2019-03-12T02:36:25.126Z,1017.68
2019-03-12T02:37:25.119Z,1017.69
2019-03-12T02:38:25.108Z,1017.63
2019-03-12T02:39:25.107Z,1017.64
2019-03-12T02:40:25.090Z,1017.65
2019-03-12T02:41:25.074Z,1017.61
2019-03-12T02:42:25.065Z,1017.66
2019-03-12T02:43:25.058Z,1017.62
2019-03-12T02:44:25.044Z,1017.60
2019-03-12T02:45:25.049Z,1017.55
2019-03-12T02:46:25.023Z,1017.54
2019-03-12T02:47:25.013Z,1017.55
2019-03-12T02:48:25.013Z,1017.49
2019-03-12T02:49:25.022Z,1017.51
2019-03-12T02:50:24.982Z,1017.46
2019-03-12T02:51:24.990Z,1017.41
2019-03-12T02:52:25.063Z,1017.41
2019-03-12T02:53:24.951Z,1017.42
2019-03-12T02:54:24.953Z,1017.38
2019-03-12T02:55:24.930Z,1017.36
2019-03-12T02:56:24.933Z,1017.39
2019-03-12T02:57:24.920Z,1017.35
2019-03-12T02:58:24.897Z,1017.36
2019-03-12T02:59:24.887Z,1017.41
2019-03-12T03:00:24.877Z,1017.36
2019-03-12T03:01:24.878Z,1017.35
2019-03-12T03:02:24.855Z,1017.39
2019-03-12T03:03:24.858Z,1017.40
2019-03-12T03:04:24.857Z,1017.36
2019-03-12T03:05:24.824Z,1017.39
2019-03-12T03:06:24.813Z,1017.40
2019-03-12T03:07:24.803Z,1017.36
2019-03-12T03:08:24.792Z,1017.42
2019-03-12T03:09:24.799Z,1017.41
2019-03-12T03:10:24.775Z,1017.37
2019-03-12T03:11:24.766Z,1017.40
2019-03-12T03:12:24.771Z,1017.35
2019-03-12T03:13:24.740Z,1017.31
2019-03-12T03:14:24.752Z,1017.28
2019-03-12T03:15:24.732Z,1017.31
2019-03-12T03:16:24.859Z,1017.28
2019-03-12T03:17:24.697Z,1017.26
2019-03-12T03:18:24.687Z,1017.25
2019-03-12T03:19:24.676Z,1017.23
2019-03-12T03:20:24.663Z,1017.25
2019-03-12T03:21:24.667Z,1017.25
2019-03-12T03:22:24.645Z,1017.23
2019-03-12T03:23:24.634Z,1017.22
2019-03-12T03:24:24.639Z,1017.19
2019-03-12T03:25:24.611Z,1017.17
2019-03-12T03:26:24.600Z,1017.18
2019-03-12T03:27:28.980Z,1017.20
2019-03-12T03:28:25.601Z,1017.18
2019-03-12T03:29:24.581Z,1017.15
2019-03-12T03:30:24.568Z,1017.18
2019-03-12T03:31:24.555Z,1017.14
2019-03-12T03:32:24.537Z,1017.11
2019-03-12T03:33:24.537Z,1017.11
2019-03-12T03:34:27.797Z,1017.07
2019-03-12T03:35:24.505Z,1017.00
2019-03-12T03:36:24.497Z,1017.09
2019-03-12T03:37:24.536Z,1017.01
2019-03-12T03:38:24.474Z,1017.09
2019-03-12T03:39:24.475Z,1017.05
2019-03-12T03:40:24.452Z,1017.03
2019-03-12T03:41:24.443Z,1017.04
2019-03-12T03:42:24.432Z,1017.04
2019-03-12T03:43:24.435Z,1017.06
2019-03-12T03:44:24.412Z,1017.04
2019-03-12T03:45:24.416Z,1016.97
2019-03-12T03:46:24.392Z,1017.03
2019-03-12T03:47:24.383Z,1017.04
2019-03-12T03:48:24.388Z,1017.03
2019-03-12T03:49:24.357Z,1017.07
2019-03-12T03:50:24.348Z,1017.03
2019-03-12T03:51:24.344Z,1017.07
2019-03-12T03:52:24.329Z,1017.01
2019-03-12T03:53:24.314Z,1017.03
2019-03-12T03:54:24.307Z,1017.08
2019-03-12T03:55:24.337Z,1017.04
2019-03-12T03:56:24.294Z,1017.01
2019-03-12T03:57:24.282Z,1017.03
2019-03-12T03:58:24.261Z,1017.00
2019-03-12T03:59:24.370Z,1016.99
2019-03-12T04:00:24.240Z,1017.03
2019-03-12T04:01:24.231Z,1017.02
2019-03-12T04:02:24.220Z,1016.99
2019-03-12T04:03:24.217Z,1017.06
2019-03-12T04:04:24.203Z,1016.97
2019-03-12T04:05:24.204Z,1016.89
2019-03-12T04:06:24.175Z,1016.93
2019-03-12T04:07:24.165Z,1016.87
2019-03-12T04:08:24.160Z,1016.90
2019-03-12T04:09:24.169Z,1016.87
2019-03-12T04:10:24.133Z,1016.88
2019-03-12T04:11:24.121Z,1016.90
2019-03-12T04:12:24.121Z,1016.87
2019-03-12T04:13:24.103Z,1016.87
2019-03-12T04:14:24.092Z,1016.88
2019-03-12T04:15:24.093Z,1016.87
2019-03-12T04:16:24.068Z,1016.87
2019-03-12T04:17:24.068Z,1016.90
2019-03-12T04:18:24.049Z,1016.87
2019-03-12T04:19:24.041Z,1016.86
2019-03-12T04:20:24.024Z,1016.84
2019-03-12T04:21:24.031Z,1016.86
2019-03-12T04:22:24.003Z,1016.83
2019-03-12T04:23:23.993Z,1016.76
2019-03-12T04:24:23.983Z,1016.79
2019-03-12T04:25:23.975Z,1016.69
2019-03-12T04:26:23.967Z,1016.68
2019-03-12T04:27:23.961Z,1016.67
2019-03-12T04:28:23.940Z,1016.69
2019-03-12T04:29:23.941Z,1016.63
2019-03-12T04:30:23.919Z,1016.63
2019-03-12T04:31:23.908Z,1016.62
2019-03-12T04:32:23.905Z,1016.64
2019-03-12T04:33:23.906Z,1016.59
2019-03-12T04:34:23.881Z,1016.53
2019-03-12T04:35:23.886Z,1016.55
2019-03-12T04:36:23.857Z,1016.49
2019-03-12T04:37:23.855Z,1016.49
2019-03-12T04:38:23.840Z,1016.51
2019-03-12T04:39:23.860Z,1016.53
2019-03-12T04:40:23.813Z,1016.53
2019-03-12T04:41:23.803Z,1016.53
2019-03-12T04:42:23.793Z,1016.54
2019-03-12T04:43:23.785Z,1016.52
2019-03-12T04:44:23.779Z,1016.49
2019-03-12T04:45:23.771Z,1016.53
2019-03-12T04:46:23.753Z,1016.49
2019-03-12T04:47:23.744Z,1016.49
2019-03-12T04:48:23.730Z,1016.53
2019-03-12T04:49:23.734Z,1016.47
2019-03-12T04:50:23.708Z,1016.47
2019-03-12T04:51:23.710Z,1016.40
2019-03-12T04:52:23.693Z,1016.46
2019-03-12T04:53:23.678Z,1016.37
2019-03-12T04:54:23.668Z,1016.41
2019-03-12T04:55:23.678Z,1016.35
2019-03-12T04:56:23.650Z,1016.33
2019-03-12T04:57:23.654Z,1016.31
2019-03-12T04:58:23.626Z,1016.30
2019-03-12T04:59:23.616Z,1016.23
2019-03-12T05:00:23.606Z,1016.21
2019-03-12T05:01:23.605Z,1016.15
2019-03-12T05:02:23.593Z,1016.16
2019-03-12T05:03:23.590Z,1016.17
2019-03-12T05:04:23.564Z,1016.08
2019-03-12T05:05:23.556Z,1016.14
2019-03-12T05:06:23.544Z,1016.08
2019-03-12T05:07:23.534Z,1016.04
2019-03-12T05:08:23.523Z,1016.03
2019-03-12T05:09:23.533Z,1016.01
2019-03-12T05:10:23.502Z,1015.97
2019-03-12T05:11:23.492Z,1015.99
2019-03-12T05:12:23.482Z,1016.02
2019-03-12T05:13:23.471Z,1016.02
2019-03-12T05:14:23.464Z,1016.00
2019-03-12T05:15:23.463Z,1015.92
2019-03-12T05:16:23.450Z,1015.95
2019-03-12T05:17:23.434Z,1015.94
2019-03-12T05:18:23.419Z,1015.86
2019-03-12T05:19:23.409Z,1015.90
2019-03-12T05:20:23.399Z,1015.86
2019-03-12T05:21:23.401Z,1015.82
2019-03-12T05:22:23.378Z,1015.81
2019-03-12T05:23:23.368Z,1015.83
2019-03-12T05:24:23.356Z,1015.78
2019-03-12T05:25:23.346Z,1015.77
2019-03-12T05:26:23.336Z,1015.71
2019-03-12T05:27:25.014Z,1015.69
2019-03-12T05:28:23.317Z,1015.68
2019-03-12T05:29:23.306Z,1015.69
2019-03-12T05:30:23.296Z,1015.66
2019-03-12T05:31:23.287Z,1015.72
2019-03-12T05:32:23.273Z,1015.69
2019-03-12T05:33:23.274Z,1015.72
2019-03-12T05:34:23.485Z,1015.69
2019-03-12T05:35:23.276Z,1015.67
2019-03-12T05:36:23.234Z,1015.58
2019-03-12T05:37:23.226Z,1015.67
2019-03-12T05:38:23.214Z,1015.62
2019-03-12T05:39:23.218Z,1015.62
2019-03-12T05:40:23.191Z,1015.60
2019-03-12T05:41:23.186Z,1015.60
2019-03-12T05:42:23.168Z,1015.58
2019-03-12T05:43:23.158Z,1015.60
2019-03-12T05:44:23.147Z,1015.54
2019-03-12T05:45:23.158Z,1015.55
2019-03-12T05:46:23.129Z,1015.59
2019-03-12T05:47:23.115Z,1015.55
2019-03-12T05:48:23.108Z,1015.47
2019-03-12T05:49:23.093Z,1015.51
2019-03-12T05:50:23.084Z,1015.49
2019-03-12T05:51:23.083Z,1015.45
2019-03-12T05:52:23.062Z,1015.49
2019-03-12T05:53:23.052Z,1015.44
2019-03-12T05:54:23.041Z,1015.41
2019-03-12T05:55:23.042Z,1015.39
2019-03-12T05:56:23.020Z,1015.36
2019-03-12T05:57:23.039Z,1015.33
2019-03-12T05:58:23.016Z,1015.33
2019-03-12T05:59:22.990Z,1015.25
2019-03-12T06:00:22.984Z,1015.31
2019-03-12T06:01:23.050Z,1015.27
2019-03-12T06:02:22.961Z,1015.30
2019-03-12T06:03:22.976Z,1015.23
2019-03-12T06:04:22.938Z,1015.21
2019-03-12T06:05:22.927Z,1015.23
2019-03-12T06:06:22.920Z,1015.19
2019-03-12T06:07:22.906Z,1015.15
2019-03-12T06:08:22.896Z,1015.11
2019-03-12T06:09:30.274Z,1015.13
2019-03-12T06:10:23.875Z,1015.07
2019-03-12T06:11:22.865Z,1015.12
2019-03-12T06:12:22.854Z,1015.04
2019-03-12T06:13:22.844Z,1015.03
2019-03-12T06:14:22.834Z,1015.03
2019-03-12T06:15:22.834Z,1015.00
2019-03-12T06:16:22.815Z,1015.04
2019-03-12T06:17:22.803Z,1015.07
2019-03-12T06:18:22.792Z,1014.95
2019-03-12T06:19:22.782Z,1014.97
2019-03-12T06:20:22.773Z,1014.83
2019-03-12T06:21:22.772Z,1014.90
2019-03-12T06:22:22.750Z,1014.93
2019-03-12T06:23:22.739Z,1014.95
2019-03-12T06:24:22.730Z,1014.91
2019-03-12T06:25:22.719Z,1014.97
2019-03-12T06:26:22.708Z,1014.95
2019-03-12T06:27:22.706Z,1014.99
2019-03-12T06:28:22.686Z,1014.94
2019-03-12T06:29:22.674Z,1014.92
2019-03-12T06:30:25.707Z,1014.88
2019-03-12T06:31:22.653Z,1014.83
2019-03-12T06:32:22.641Z,1014.84
2019-03-12T06:33:24.278Z,1014.80
2019-03-12T06:34:22.620Z,1014.80
2019-03-12T06:35:22.609Z,1014.82
2019-03-12T06:36:22.600Z,1014.79
2019-03-12T06:37:22.588Z,1014.75
2019-03-12T06:38:22.579Z,1014.64
2019-03-12T06:39:22.578Z,1014.67
2019-03-12T06:40:22.556Z,1014.61
2019-03-12T06:41:22.544Z,1014.65
2019-03-12T06:42:22.535Z,1014.61
2019-03-12T06:43:22.524Z,1014.66
2019-03-12T06:44:22.516Z,1014.62
2019-03-12T06:45:22.515Z,1014.60
2019-03-12T06:46:22.493Z,1014.57
2019-03-12T06:47:22.482Z,1014.56
2019-03-12T06:48:22.471Z,1014.54
2019-03-12T06:49:22.461Z,1014.54
2019-03-12T06:50:22.450Z,1014.55
2019-03-12T06:51:22.450Z,1014.59
2019-03-12T06:52:22.428Z,1014.51
2019-03-12T06:53:22.419Z,1014.56
2019-03-12T06:54:22.409Z,1014.51
2019-03-12T06:55:22.398Z,1014.50
2019-03-12T06:56:22.386Z,1014.49
2019-03-12T06:57:22.388Z,1014.52
2019-03-12T06:58:22.366Z,1014.54
2019-03-12T06:59:22.357Z,1014.47
2019-03-12T07:00:22.345Z,1014.48
2019-03-12T07:01:22.336Z,1014.41
2019-03-12T07:02:22.324Z,1014.42
2019-03-12T07:03:22.325Z,1014.42
2019-03-12T07:04:22.303Z,1014.45
2019-03-12T07:05:22.293Z,1014.44
2019-03-12T07:06:22.283Z,1014.47
2019-03-12T07:07:22.271Z,1014.54
2019-03-12T07:08:22.260Z,1014.54
2019-03-12T07:09:22.259Z,1014.50
2019-03-12T07:10:22.238Z,1014.33
2019-03-12T07:11:22.234Z,1014.34
2019-03-12T07:12:22.217Z,1014.32
2019-03-12T07:13:22.206Z,1014.26
2019-03-12T07:14:22.836Z,1014.27
2019-03-12T07:15:22.196Z,1014.20
2019-03-12T07:16:22.182Z,1014.11
2019-03-12T07:17:22.168Z,1013.93
2019-03-12T07:18:22.155Z,1014.06
2019-03-12T07:19:22.144Z,1014.00
2019-03-12T07:20:22.140Z,1014.02
2019-03-12T07:21:22.138Z,1013.98
2019-03-12T07:22:22.113Z,1014.03
2019-03-12T07:23:22.103Z,1014.05
2019-03-12T07:24:22.092Z,1013.99
2019-03-12T07:25:22.082Z,1013.93
2019-03-12T07:26:22.070Z,1013.92
2019-03-12T07:27:22.073Z,1013.93
2019-03-12T07:28:22.050Z,1013.99
2019-03-12T07:29:22.039Z,1013.97
2019-03-12T07:30:22.029Z,1014.01
2019-03-12T07:31:22.111Z,1013.87
2019-03-12T07:32:22.008Z,1013.89
2019-03-12T07:33:22.016Z,1014.02
2019-03-12T07:34:21.987Z,1013.87
2019-03-12T07:35:22.839Z,1013.92
2019-03-12T07:36:21.966Z,1013.91
2019-03-12T07:37:21.955Z,1013.95
2019-03-12T07:38:21.945Z,1013.88
2019-03-12T07:39:21.945Z,1013.87
2019-03-12T07:40:21.924Z,1013.92
2019-03-12T07:41:30.201Z,1013.93
2019-03-12T07:42:22.903Z,1013.99
2019-03-12T07:43:21.894Z,1013.98
2019-03-12T07:44:21.883Z,1013.88
2019-03-12T07:45:21.888Z,1013.85
2019-03-12T07:46:21.862Z,1013.92
2019-03-12T07:47:34.879Z,1013.88
2019-03-12T07:48:22.839Z,1013.88
2019-03-12T07:49:21.829Z,1013.89
2019-03-12T07:50:21.819Z,1013.88
2019-03-12T07:51:21.829Z,1013.87
2019-03-12T07:52:21.798Z,1013.80
2019-03-12T07:53:21.788Z,1013.87
2019-03-12T07:54:21.776Z,1013.81
2019-03-12T07:55:21.766Z,1013.88
2019-03-12T07:56:21.758Z,1013.87
2019-03-12T07:57:21.755Z,1013.84
2019-03-12T07:58:34.918Z,1013.81
2019-03-12T07:59:22.727Z,1013.82
2019-03-12T08:00:21.720Z,1013.83
2019-03-12T08:01:24.822Z,1013.80
2019-03-12T08:02:21.695Z,1013.74
2019-03-12T08:03:21.694Z,1013.75
2019-03-12T08:04:21.673Z,1013.73
2019-03-12T08:05:21.663Z,1013.75
2019-03-12T08:06:21.654Z,1013.72
2019-03-12T08:07:21.655Z,1013.70
2019-03-12T08:08:21.631Z,1013.69
2019-03-12T08:09:21.633Z,1013.73
2019-03-12T08:10:21.612Z,1013.71
2019-03-12T08:11:21.599Z,1013.66
2019-03-12T08:12:21.589Z,1013.64
2019-03-12T08:13:21.578Z,1013.67
2019-03-12T08:14:21.568Z,1013.71
2019-03-12T08:15:23.363Z,1013.65
2019-03-12T08:16:21.548Z,1013.68
2019-03-12T08:17:21.537Z,1013.66
2019-03-12T08:18:21.526Z,1013.63
2019-03-12T08:19:21.516Z,1013.54
2019-03-12T08:20:21.510Z,1013.56
2019-03-12T08:21:22.783Z,1013.52
2019-03-12T08:22:21.485Z,1013.54
2019-03-12T08:23:21.473Z,1013.53
2019-03-12T08:24:21.463Z,1013.51
2019-03-12T08:25:21.452Z,1013.47
2019-03-12T08:26:21.444Z,1013.47
2019-03-12T08:27:21.452Z,1013.49
2019-03-12T08:28:21.421Z,1013.39
2019-03-12T08:29:21.415Z,1013.39
2019-03-12T08:30:21.399Z,1013.39
2019-03-12T08:31:21.388Z,1013.39
2019-03-12T08:32:23.762Z,1013.34
2019-03-12T08:33:21.391Z,1013.32
2019-03-12T08:34:21.356Z,1013.28
2019-03-12T08:35:21.349Z,1013.27
2019-03-12T08:36:21.334Z,1013.17
2019-03-12T08:37:21.321Z,1013.15
2019-03-12T08:38:21.312Z,1013.10
2019-03-12T08:39:21.311Z,1013.08
2019-03-12T08:40:21.289Z,1013.06
2019-03-12T08:41:21.278Z,1013.01
2019-03-12T08:42:21.290Z,1012.94
2019-03-12T08:43:21.256Z,1012.90
2019-03-12T08:44:21.245Z,1012.87
2019-03-12T08:45:21.245Z,1012.84
2019-03-12T08:46:22.266Z,1012.85
2019-03-12T08:47:21.212Z,1012.78
2019-03-12T08:48:21.201Z,1012.76
2019-03-12T08:49:21.190Z,1012.65
2019-03-12T08:50:21.180Z,1012.65
2019-03-12T08:51:21.182Z,1012.59
2019-03-12T08:52:21.157Z,1012.55
2019-03-12T08:53:21.148Z,1012.51
2019-03-12T08:54:21.557Z,1012.52
2019-03-12T08:55:21.128Z,1012.49
2019-03-12T08:56:21.114Z,1012.45
2019-03-12T08:57:21.117Z,1012.35
2019-03-12T08:58:21.093Z,1012.31
2019-03-12T08:59:21.087Z,1012.33
2019-03-12T09:00:23.947Z,1012.31
2019-03-12T09:01:21.062Z,1012.27
2019-03-12T09:02:21.050Z,1012.27
2019-03-12T09:03:21.059Z,1012.22
2019-03-12T09:04:21.029Z,1012.19
2019-03-12T09:05:21.022Z,1012.19
2019-03-12T09:06:21.008Z,1012.09
2019-03-12T09:07:20.997Z,1012.18
2019-03-12T09:08:20.987Z,1012.19
2019-03-12T09:09:20.989Z,1012.16
2019-03-12T09:10:20.965Z,1012.13
2019-03-12T09:11:20.956Z,1012.03
2019-03-12T09:12:20.944Z,1011.99
2019-03-12T09:13:20.935Z,1011.91
2019-03-12T09:14:20.924Z,1011.86
2019-03-12T09:15:20.926Z,1011.83
2019-03-12T09:16:20.903Z,1011.67
2019-03-12T09:17:20.891Z,1011.65
2019-03-12T09:18:20.882Z,1011.60
2019-03-12T09:19:20.870Z,1011.59
2019-03-12T09:20:20.864Z,1011.58
2019-03-12T09:21:20.862Z,1011.64
2019-03-12T09:22:20.839Z,1011.71
2019-03-12T09:23:20.833Z,1011.63
2019-03-12T09:24:20.816Z,1011.48
2019-03-12T09:25:20.806Z,1011.46
2019-03-12T09:26:20.794Z,1011.44
2019-03-12T09:27:20.795Z,1011.42
2019-03-12T09:28:20.776Z,1011.41
2019-03-12T09:29:20.763Z,1011.40
2019-03-12T09:30:20.752Z,1011.31
2019-03-12T09:31:20.745Z,1011.30
2019-03-12T09:32:20.800Z,1011.31
2019-03-12T09:33:20.736Z,1011.23
2019-03-12T09:34:20.709Z,1011.19
2019-03-12T09:35:20.701Z,1011.13
2019-03-12T09:36:20.689Z,1011.08
2019-03-12T09:37:20.680Z,1011.04
2019-03-12T09:38:20.667Z,1011.15
2019-03-12T09:39:20.664Z,1011.03
2019-03-12T09:40:20.649Z,1011.10
2019-03-12T09:41:20.630Z,1010.97
2019-03-12T09:42:20.620Z,1010.97
2019-03-12T09:43:20.631Z,1010.94
2019-03-12T09:44:20.603Z,1010.95
2019-03-12T09:45:20.597Z,1010.90
2019-03-12T09:46:20.576Z,1011.01
2019-03-12T09:47:20.565Z,1010.96
2019-03-12T09:48:20.555Z,1010.93
2019-03-12T09:49:20.543Z,1010.91
2019-03-12T09:50:20.532Z,1010.84
2019-03-12T09:51:20.531Z,1010.78
2019-03-12T09:52:20.511Z,1010.85
2019-03-12T09:53:20.508Z,1010.80
2019-03-12T09:54:20.489Z,1010.83
2019-03-12T09:55:20.487Z,1010.74
2019-03-12T09:56:20.466Z,1010.78
2019-03-12T09:57:20.473Z,1010.68
2019-03-12T09:58:20.445Z,1010.67
2019-03-12T09:59:20.435Z,1010.64
2019-03-12T10:00:20.423Z,1010.57
2019-03-12T10:01:20.414Z,1010.56
2019-03-12T10:02:20.402Z,1010.58
2019-03-12T10:03:20.410Z,1010.49
2019-03-12T10:04:20.404Z,1010.49
2019-03-12T10:05:20.372Z,1010.46
2019-03-12T10:06:20.359Z,1010.48
2019-03-12T10:07:20.350Z,1010.40
2019-03-12T10:08:20.338Z,1010.44
2019-03-12T10:09:20.339Z,1010.41
2019-03-12T10:10:20.319Z,1010.39
2019-03-12T10:11:20.307Z,1010.34
2019-03-12T10:12:20.298Z,1010.22
2019-03-12T10:13:20.285Z,1010.21
2019-03-12T10:14:20.275Z,1010.15
2019-03-12T10:15:20.275Z,1010.19
2019-03-12T10:16:20.254Z,1010.14
2019-03-12T10:17:20.243Z,1010.08
2019-03-12T10:18:20.233Z,1009.96
2019-03-12T10:19:20.221Z,1009.99
2019-03-12T10:20:20.216Z,1010.03
2019-03-12T10:21:20.240Z,1009.85
2019-03-12T10:22:20.189Z,1009.86
2019-03-12T10:23:20.178Z,1009.91
2019-03-12T10:24:20.168Z,1009.93
2019-03-12T10:25:20.158Z,1009.84
2019-03-12T10:26:20.147Z,1009.88
2019-03-12T10:27:20.145Z,1009.87
2019-03-12T10:28:20.132Z,1009.84
2019-03-12T10:29:20.115Z,1009.71
2019-03-12T10:30:20.102Z,1009.73
2019-03-12T10:31:20.095Z,1009.70
2019-03-12T10:32:20.086Z,1009.64
2019-03-12T10:33:20.085Z,1009.57
2019-03-12T10:34:28.967Z,1009.54
2019-03-12T10:35:21.050Z,1009.33
2019-03-12T10:36:20.229Z,1009.47
2019-03-12T10:37:20.029Z,1009.43
2019-03-12T10:38:20.021Z,1009.42
2019-03-12T10:39:20.028Z,1009.40
2019-03-12T10:40:20.006Z,1009.30
2019-03-12T10:41:19.986Z,1009.35
2019-03-12T10:42:19.975Z,1009.33
2019-03-12T10:43:19.965Z,1009.28
2019-03-12T10:44:19.956Z,1009.35
2019-03-12T10:45:19.954Z,1009.35
2019-03-12T10:46:19.932Z,1009.26
2019-03-12T10:47:19.938Z,1009.19
2019-03-12T10:48:19.911Z,1009.23
2019-03-12T10:49:19.900Z,1009.19
2019-03-12T10:50:19.890Z,1009.09
2019-03-12T10:51:19.894Z,1009.28
2019-03-12T10:52:19.872Z,1009.12
2019-03-12T10:53:19.859Z,1009.20
2019-03-12T10:54:19.847Z,1009.09
2019-03-12T10:55:19.837Z,1009.10
2019-03-12T10:56:19.829Z,1009.08
2019-03-12T10:57:21.643Z,1009.10
2019-03-12T10:58:19.806Z,1009.04
2019-03-12T10:59:19.795Z,1008.91
2019-03-12T11:00:19.795Z,1008.81
2019-03-12T11:01:19.777Z,1008.77
2019-03-12T11:02:19.763Z,1008.76
2019-03-12T11:03:19.764Z,1008.73
2019-03-12T11:04:19.740Z,1008.56
2019-03-12T11:05:19.732Z,1008.51
2019-03-12T11:06:19.719Z,1008.51
2019-03-12T11:07:19.708Z,1008.65
2019-03-12T11:08:19.696Z,1008.63
2019-03-12T11:09:19.704Z,1008.49
2019-03-12T11:10:19.676Z,1008.54
2019-03-12T11:11:19.665Z,1008.53
2019-03-12T11:12:19.653Z,1008.41
2019-03-12T11:13:19.643Z,1008.33
2019-03-12T11:14:19.631Z,1008.37
2019-03-12T11:15:19.632Z,1008.34
2019-03-12T11:16:19.613Z,1008.35
2019-03-12T11:17:19.598Z,1008.39
2019-03-12T11:18:19.588Z,1008.24
2019-03-12T11:19:19.577Z,1008.19
2019-03-12T11:20:19.575Z,1008.24
2019-03-12T11:21:19.574Z,1008.10
2019-03-12T11:22:19.545Z,1008.09
2019-03-12T11:23:19.532Z,1008.06
2019-03-12T11:24:19.523Z,1008.10
2019-03-12T11:25:27.451Z,1008.03
2019-03-12T11:26:20.509Z,1008.08
2019-03-12T11:27:19.489Z,1008.01
2019-03-12T11:28:19.477Z,1007.99
2019-03-12T11:29:19.466Z,1007.96
2019-03-12T11:30:19.456Z,1007.96
2019-03-12T11:31:19.445Z,1007.87
2019-03-12T11:32:19.445Z,1007.99
2019-03-12T11:33:19.422Z,1007.97
2019-03-12T11:34:19.413Z,1007.98
2019-03-12T11:35:19.402Z,1007.93
2019-03-12T11:36:19.412Z,1007.89
2019-03-12T11:37:19.398Z,1007.79
2019-03-12T11:38:19.389Z,1007.93
2019-03-12T11:39:19.358Z,1007.79
2019-03-12T11:40:19.346Z,1007.77
2019-03-12T11:41:19.345Z,1007.76
2019-03-12T11:42:19.469Z,1007.71
2019-03-12T11:43:19.331Z,1007.61
2019-03-12T11:44:19.314Z,1007.67
2019-03-12T11:45:20.577Z,1007.60
2019-03-12T11:46:20.281Z,1007.55
2019-03-12T11:47:19.271Z,1007.49
2019-03-12T11:48:19.261Z,1007.49
2019-03-12T11:49:19.279Z,1007.54
2019-03-12T11:50:19.334Z,1007.46
2019-03-12T11:51:19.228Z,1007.38
2019-03-12T11:52:19.217Z,1007.36
2019-03-12T11:53:19.208Z,1007.29
2019-03-12T11:54:19.220Z,1007.35
2019-03-12T11:55:19.209Z,1007.28
2019-03-12T11:56:19.185Z,1007.22
2019-03-12T11:57:19.165Z,1007.29
2019-03-12T11:58:19.165Z,1007.27
2019-03-12T11:59:19.144Z,1007.26
2019-03-12T12:00:19.650Z,1007.22
2019-03-12T12:01:19.121Z,1007.24
2019-03-12T12:02:19.121Z,1007.11
2019-03-12T12:03:19.100Z,1007.18
2019-03-12T12:04:19.090Z,1007.17
2019-03-12T12:05:19.080Z,1007.18